Terminal Aerodrome Forecast
Issued by NWS

Home | Current Version | Previous Version | Text Only | Print | Product List | Glossary On
Versions: 1 2 3 4 5 6 7 8 9 10 11 12 13 14 15 16 17 18 19 20 21 22 23 24 25 26 27 28
666
FTUS46 KLOX 261459 AAA
TAFSBA
TAF AMD
KSBA 261459Z 2615/2712 VRB05KT 1SM BR OVC003
     FM261630 VRB05KT 4SM BR OVC005
     FM261800 17005KT P6SM FEW010 SCT200
     FM262200 23008KT P6SM BKN200
     FM270400 VRB05KT P6SM BKN200
     FM270800 VRB05KT 2SM BR VV002=

USA.gov is the U.S. government's official web portal to all federal, state and local government web resources and services.